Time;durP1;ratioP1;P1;durP2;ratioP2;P2;SDS_P1;SDS_P2;PMS_P1;PMS_P2;Temp;Humidity;BMP_temperature;BMP_pressure;BME280_temperature;BME280_humidity;BME280_pressure;Samples;Min_cycle;Max_cycle;Signal;HPM_P1;HPM_P2
2024/03/02 00:01:30;;;;;;;7.03;1.53;;;;;;;;;;10353920;28;20400;-88
2024/03/02 00:06:34;;;;;;;7.77;2.20;;;;;;;;;;10359549;28;20488;-88
2024/03/02 00:11:37;;;;;;;6.30;1.80;;;;;;;;;;10362836;28;20413;-87
2024/03/02 00:16:39;;;;;;;4.63;1.73;;;;;;;;;;10344571;28;20459;-86
2024/03/02 00:21:43;;;;;;;7.43;2.37;;;;;;;;;;10355262;28;20468;-88
2024/03/02 00:26:45;;;;;;;7.55;1.80;;;;;;;;;;10355518;28;20427;-87
2024/03/02 00:31:48;;;;;;;7.05;1.83;;;;;;;;;;10356473;28;21070;-87
2024/03/02 00:36:52;;;;;;;5.87;1.80;;;;;;;;;;10351424;28;20763;-88
2024/03/02 00:41:54;;;;;;;8.00;1.80;;;;;;;;;;10358688;28;20407;-86
2024/03/02 00:46:57;;;;;;;7.90;1.93;;;;;;;;;;10356669;28;20438;-88
2024/03/02 00:52:01;;;;;;;3.73;1.60;;;;;;;;;;10349989;28;20844;-87
2024/03/02 00:57:04;;;;;;;5.05;1.90;;;;;;;;;;10355738;28;20477;-88
2024/03/02 01:02:06;;;;;;;8.57;1.80;;;;;;;;;;10345320;28;20419;-89
2024/03/02 01:07:10;;;;;;;7.18;2.20;;;;;;;;;;10346372;28;20442;-88
2024/03/02 01:12:12;;;;;;;5.88;1.90;;;;;;;;;;10356979;28;20419;-88
2024/03/02 01:17:15;;;;;;;7.53;1.60;;;;;;;;;;10355386;28;20411;-88
2024/03/02 01:22:24;;;;;;;4.35;1.67;;;;;;;;;;10363453;28;20774;-88
2024/03/02 01:27:27;;;;;;;9.35;1.80;;;;;;;;;;10339538;28;20961;-88
2024/03/02 01:32:29;;;;;;;4.03;1.50;;;;;;;;;;10349275;28;20416;-86
2024/03/02 01:37:33;;;;;;;5.00;1.58;;;;;;;;;;10354120;28;20423;-87
2024/03/02 01:42:36;;;;;;;5.18;1.50;;;;;;;;;;10346246;28;20415;-87
2024/03/02 01:47:38;;;;;;;7.25;1.70;;;;;;;;;;10353426;28;20425;-88
2024/03/02 01:52:44;;;;;;;4.97;1.85;;;;;;;;;;10347012;28;20407;-88
2024/03/02 01:57:47;;;;;;;6.68;2.10;;;;;;;;;;10357145;28;20797;-88
2024/03/02 02:02:50;;;;;;;4.88;1.83;;;;;;;;;;10348886;28;20455;-87
2024/03/02 02:07:53;;;;;;;8.07;2.13;;;;;;;;;;10344153;28;20413;-87
2024/03/02 02:12:56;;;;;;;4.55;2.03;;;;;;;;;;10346584;28;20949;-87
2024/03/02 02:17:59;;;;;;;6.72;2.40;;;;;;;;;;10355470;28;20877;-88
2024/03/02 02:23:05;;;;;;;8.02;1.90;;;;;;;;;;10349105;28;20473;-86
2024/03/02 02:28:07;;;;;;;5.63;2.00;;;;;;;;;;10346720;28;20493;-87
2024/03/02 02:33:10;;;;;;;3.75;1.50;;;;;;;;;;10355831;28;20403;-87
2024/03/02 02:38:13;;;;;;;2.87;1.43;;;;;;;;;;10352142;28;20959;-88
2024/03/02 02:43:16;;;;;;;4.18;1.42;;;;;;;;;;10352490;28;20898;-87
2024/03/02 02:48:18;;;;;;;4.90;1.57;;;;;;;;;;10346214;28;20961;-88
2024/03/02 02:53:22;;;;;;;3.80;1.40;;;;;;;;;;10352519;28;20447;-88
2024/03/02 02:58:24;;;;;;;6.63;1.70;;;;;;;;;;10361958;28;20414;-88
2024/03/02 03:03:27;;;;;;;6.40;1.40;;;;;;;;;;10352885;28;20921;-87
2024/03/02 03:08:31;;;;;;;5.05;2.10;;;;;;;;;;10360331;28;20408;-88
2024/03/02 03:13:33;;;;;;;5.68;1.95;;;;;;;;;;10362557;28;20477;-87
2024/03/02 03:18:36;;;;;;;6.15;1.60;;;;;;;;;;10360754;28;20410;-88
2024/03/02 03:23:39;;;;;;;6.10;2.17;;;;;;;;;;10352391;28;20458;-87
2024/03/02 03:28:42;;;;;;;7.53;2.00;;;;;;;;;;10349645;28;20446;-87
2024/03/02 03:33:44;;;;;;;6.18;1.75;;;;;;;;;;10353005;28;20481;-87
2024/03/02 03:38:48;;;;;;;3.93;1.70;;;;;;;;;;10362920;28;20445;-87
2024/03/02 03:43:50;;;;;;;3.67;1.63;;;;;;;;;;10373305;28;20443;-87
2024/03/02 03:48:52;;;;;;;3.42;1.15;;;;;;;;;;10353510;28;20415;-87
2024/03/02 03:53:56;;;;;;;3.75;1.52;;;;;;;;;;10359716;28;20454;-87
2024/03/02 03:58:59;;;;;;;5.70;2.20;;;;;;;;;;10360519;28;20419;-87
2024/03/02 04:04:03;;;;;;;3.75;1.52;;;;;;;;;;10345801;28;20907;-87
2024/03/02 04:09:07;;;;;;;5.77;2.30;;;;;;;;;;10357352;28;20412;-88
2024/03/02 04:14:09;;;;;;;3.33;1.48;;;;;;;;;;10357935;28;20479;-88
2024/03/02 04:19:12;;;;;;;4.47;1.90;;;;;;;;;;10359811;28;20441;-87
2024/03/02 04:24:15;;;;;;;4.17;1.87;;;;;;;;;;10354763;28;20493;-88
2024/03/02 04:29:18;;;;;;;5.75;2.17;;;;;;;;;;10355508;28;20465;-88
2024/03/02 04:34:21;;;;;;;6.00;2.00;;;;;;;;;;10352964;28;20495;-87
2024/03/02 04:39:26;;;;;;;3.93;1.60;;;;;;;;;;10361412;28;20906;-86
2024/03/02 04:44:28;;;;;;;6.20;1.90;;;;;;;;;;10354034;28;20485;-87
2024/03/02 04:49:31;;;;;;;2.07;1.37;;;;;;;;;;10357109;28;20491;-88
2024/03/02 04:55:09;;;;;;;5.82;1.75;;;;;;;;;;10358405;28;20467;-87
2024/03/02 04:59:57;;;;;;;3.78;1.88;;;;;;;;;;10351544;28;20413;-87
2024/03/02 05:05:00;;;;;;;3.10;1.48;;;;;;;;;;10349498;28;20550;-87
2024/03/02 05:10:04;;;;;;;4.07;1.20;;;;;;;;;;10346299;28;20415;-86
2024/03/02 05:15:08;;;;;;;3.70;1.20;;;;;;;;;;10353785;28;20473;-87
2024/03/02 05:20:11;;;;;;;6.60;1.95;;;;;;;;;;10358423;28;20415;-88
2024/03/02 05:25:15;;;;;;;5.03;1.80;;;;;;;;;;10356063;28;20916;-88
2024/03/02 05:30:17;;;;;;;5.75;2.10;;;;;;;;;;10353106;28;20444;-88
2024/03/02 05:35:20;;;;;;;4.73;1.90;;;;;;;;;;10356693;28;20483;-87
2024/03/02 05:40:24;;;;;;;5.97;1.87;;;;;;;;;;10351338;28;20492;-87
2024/03/02 05:45:26;;;;;;;3.50;1.52;;;;;;;;;;10352662;28;20450;-87
2024/03/02 05:50:29;;;;;;;3.45;1.95;;;;;;;;;;10353101;28;20419;-87
2024/03/02 05:55:32;;;;;;;7.90;1.80;;;;;;;;;;10355466;28;20967;-88
2024/03/02 06:00:35;;;;;;;6.07;1.65;;;;;;;;;;10348832;28;20434;-88
2024/03/02 06:05:37;;;;;;;4.90;1.70;;;;;;;;;;10352284;28;20463;-87
2024/03/02 06:10:41;;;;;;;5.47;1.52;;;;;;;;;;10350817;28;20814;-88
2024/03/02 06:15:43;;;;;;;3.97;2.00;;;;;;;;;;10358342;28;20475;-88
2024/03/02 06:20:46;;;;;;;5.43;1.67;;;;;;;;;;10349009;28;20414;-86
2024/03/02 06:25:49;;;;;;;4.43;2.13;;;;;;;;;;10339342;28;20488;-86
2024/03/02 06:30:52;;;;;;;4.53;2.05;;;;;;;;;;10351698;28;20475;-87
2024/03/02 06:35:54;;;;;;;6.75;1.95;;;;;;;;;;10354680;28;20434;-87
2024/03/02 06:40:58;;;;;;;6.10;2.70;;;;;;;;;;10343605;28;20403;-87
2024/03/02 06:46:01;;;;;;;5.10;2.23;;;;;;;;;;10344076;28;20462;-85
2024/03/02 06:51:04;;;;;;;5.73;2.40;;;;;;;;;;10350965;28;20446;-88
2024/03/02 06:56:08;;;;;;;6.28;2.35;;;;;;;;;;10347404;28;20407;-86
2024/03/02 07:01:10;;;;;;;8.50;2.17;;;;;;;;;;10342084;28;20411;-91
2024/03/02 07:06:13;;;;;;;5.00;2.25;;;;;;;;;;10353175;28;20495;-89
2024/03/02 07:11:16;;;;;;;4.63;2.25;;;;;;;;;;10353362;28;20434;-88
2024/03/02 07:21:46;;;;;;;3.63;1.90;;;;;;;;;;10342758;28;20417;-86
2024/03/02 07:26:50;;;;;;;7.70;2.20;;;;;;;;;;10342057;28;20925;-86
2024/03/02 07:31:52;;;;;;;4.13;2.08;;;;;;;;;;10336985;28;20416;-86
2024/03/02 07:36:55;;;;;;;5.32;1.83;;;;;;;;;;10344257;28;20441;-86
2024/03/02 07:41:59;;;;;;;6.15;2.30;;;;;;;;;;10347177;28;20396;-86
2024/03/02 07:47:01;;;;;;;6.78;2.60;;;;;;;;;;10351259;28;20881;-86
2024/03/02 07:52:04;;;;;;;6.20;2.20;;;;;;;;;;10323040;23;20797;-91
2024/03/02 07:57:08;;;;;;;5.40;2.10;;;;;;;;;;10295407;28;20411;-90
2024/03/02 08:02:12;;;;;;;6.68;2.33;;;;;;;;;;10313025;28;20419;-90
2024/03/02 08:07:14;;;;;;;5.28;2.17;;;;;;;;;;10311421;28;20490;-90
2024/03/02 08:12:19;;;;;;;4.15;2.47;;;;;;;;;;10306315;28;20417;-90
2024/03/02 08:17:22;;;;;;;5.43;2.78;;;;;;;;;;10300639;28;20440;-92
2024/03/02 08:22:25;;;;;;;5.85;2.95;;;;;;;;;;10310744;28;20901;-91
2024/03/02 08:27:28;;;;;;;3.72;2.30;;;;;;;;;;10295245;28;20465;-90
2024/03/02 08:32:31;;;;;;;4.20;2.20;;;;;;;;;;10300591;28;20410;-92
2024/03/02 08:37:33;;;;;;;4.57;2.20;;;;;;;;;;10313942;28;20531;-92
2024/03/02 08:42:37;;;;;;;4.60;2.40;;;;;;;;;;10310167;28;20409;-92
2024/03/02 08:47:40;;;;;;;7.15;2.65;;;;;;;;;;10312679;28;20425;-92
2024/03/02 08:52:43;;;;;;;3.83;2.33;;;;;;;;;;10307060;28;21241;-91
2024/03/02 08:57:46;;;;;;;3.58;2.38;;;;;;;;;;10305857;28;20453;-91
2024/03/02 09:02:49;;;;;;;4.57;2.45;;;;;;;;;;10319796;28;20409;-91
2024/03/02 09:07:51;;;;;;;3.50;2.63;;;;;;;;;;10325959;28;20517;-91
2024/03/02 09:12:55;;;;;;;6.03;2.25;;;;;;;;;;10308496;28;20409;-92
2024/03/02 09:17:57;;;;;;;3.90;1.90;;;;;;;;;;10319574;28;20414;-90
2024/03/02 09:23:00;;;;;;;3.67;2.53;;;;;;;;;;10311546;28;20962;-92
2024/03/02 09:28:04;;;;;;;3.60;2.50;;;;;;;;;;10311015;28;21011;-92
2024/03/02 09:33:06;;;;;;;7.68;2.83;;;;;;;;;;10309245;28;20420;-92
2024/03/02 09:38:08;;;;;;;5.00;2.28;;;;;;;;;;10300940;28;20415;-92
2024/03/02 09:43:13;;;;;;;5.65;2.88;;;;;;;;;;10306513;28;20426;-92
2024/03/02 09:48:18;;;;;;;5.53;2.40;;;;;;;;;;10305502;28;20428;-92
2024/03/02 09:53:24;;;;;;;6.53;2.97;;;;;;;;;;10299899;28;20401;-91
2024/03/02 09:58:38;;;;;;;5.65;2.95;;;;;;;;;;10305414;28;20477;-92
2024/03/02 10:03:41;;;;;;;7.75;3.10;;;;;;;;;;10296782;28;20417;-92
2024/03/02 10:08:44;;;;;;;4.93;3.03;;;;;;;;;;10305468;28;20436;-92
2024/03/02 10:13:48;;;;;;;4.78;2.58;;;;;;;;;;10309740;28;20410;-90
2024/03/02 10:18:51;;;;;;;4.78;2.70;;;;;;;;;;10308973;28;20404;-90
2024/03/02 10:23:54;;;;;;;6.97;2.90;;;;;;;;;;10300722;28;20479;-86
2024/03/02 10:28:59;;;;;;;4.80;2.80;;;;;;;;;;10297067;28;20503;-88
2024/03/02 10:34:02;;;;;;;4.50;2.80;;;;;;;;;;10282660;28;20419;-89
2024/03/02 10:39:04;;;;;;;5.53;2.92;;;;;;;;;;10293899;28;20448;-90
2024/03/02 10:44:10;;;;;;;4.30;2.50;;;;;;;;;;10291736;28;20473;-89
2024/03/02 10:49:13;;;;;;;4.30;2.53;;;;;;;;;;10284808;28;20485;-85
2024/03/02 10:54:15;;;;;;;3.70;2.25;;;;;;;;;;10278761;28;20414;-89
2024/03/02 10:59:27;;;;;;;3.42;1.95;;;;;;;;;;10289691;28;20456;-87
2024/03/02 11:04:31;;;;;;;3.80;2.10;;;;;;;;;;10290239;28;20454;-89
2024/03/02 11:09:35;;;;;;;3.97;2.28;;;;;;;;;;10303051;28;20426;-91
2024/03/02 11:14:43;;;;;;;2.83;2.00;;;;;;;;;;10299336;28;20897;-94
2024/03/02 11:19:47;;;;;;;3.90;2.30;;;;;;;;;;10292605;28;20481;-89
2024/03/02 11:24:49;;;;;;;4.60;2.70;;;;;;;;;;10302004;28;20416;-89
2024/03/02 11:29:54;;;;;;;4.10;2.80;;;;;;;;;;10307541;28;20543;-90
2024/03/02 11:34:57;;;;;;;6.00;2.73;;;;;;;;;;10301447;28;20474;-90
2024/03/02 11:39:59;;;;;;;4.75;2.78;;;;;;;;;;10306553;28;20413;-89
2024/03/02 11:45:03;;;;;;;5.45;2.90;;;;;;;;;;10302639;28;20419;-90
2024/03/02 11:50:07;;;;;;;6.35;3.25;;;;;;;;;;10285481;28;20548;-90
2024/03/02 11:55:12;;;;;;;13.30;8.10;;;;;;;;;;10297591;28;20427;-90
2024/03/02 12:00:20;;;;;;;15.03;6.67;;;;;;;;;;10274705;28;20450;-86
2024/03/02 12:05:22;;;;;;;8.18;3.30;;;;;;;;;;10284266;28;20507;-90
2024/03/02 12:10:25;;;;;;;6.23;4.60;;;;;;;;;;10267960;28;20395;-90
2024/03/02 12:15:30;;;;;;;6.60;2.80;;;;;;;;;;10305691;28;20897;-91
2024/03/02 12:20:33;;;;;;;3.63;2.25;;;;;;;;;;10306676;28;20410;-91
2024/03/02 12:25:36;;;;;;;3.33;2.30;;;;;;;;;;10296009;28;20477;-90
2024/03/02 12:30:40;;;;;;;3.47;1.77;;;;;;;;;;10296467;28;20430;-90
2024/03/02 12:35:42;;;;;;;3.03;2.10;;;;;;;;;;10287922;28;20759;-90
2024/03/02 12:40:44;;;;;;;5.75;2.17;;;;;;;;;;10285657;28;20462;-89
2024/03/02 12:45:48;;;;;;;5.35;2.78;;;;;;;;;;10295556;28;20462;-87
2024/03/02 12:50:51;;;;;;;5.17;2.80;;;;;;;;;;10285818;28;20450;-91
2024/03/02 12:55:54;;;;;;;5.23;2.87;;;;;;;;;;10284884;28;20484;-90
2024/03/02 13:01:08;;;;;;;6.37;2.80;;;;;;;;;;10285585;28;20917;-91
2024/03/02 13:06:11;;;;;;;6.30;3.40;;;;;;;;;;10296916;28;20509;-87
2024/03/02 13:11:14;;;;;;;4.75;2.70;;;;;;;;;;10282827;28;20450;-87
2024/03/02 13:16:20;;;;;;;3.70;2.63;;;;;;;;;;10301901;28;20418;-88
2024/03/02 13:21:22;;;;;;;6.35;3.00;;;;;;;;;;10300575;28;20417;-87
2024/03/02 13:26:24;;;;;;;4.57;2.70;;;;;;;;;;10301617;28;20460;-86
2024/03/02 13:31:28;;;;;;;5.87;3.40;;;;;;;;;;10298707;28;20501;-88
2024/03/02 13:36:30;;;;;;;5.97;3.40;;;;;;;;;;10293292;28;20425;-90
2024/03/02 13:41:33;;;;;;;5.32;3.30;;;;;;;;;;10291162;28;20410;-90
2024/03/02 13:46:37;;;;;;;5.70;3.60;;;;;;;;;;10298448;28;20950;-90
2024/03/02 13:51:39;;;;;;;5.75;3.92;;;;;;;;;;10297337;28;20477;-90
2024/03/02 13:56:42;;;;;;;5.90;3.60;;;;;;;;;;10290313;28;21330;-93
2024/03/02 14:01:46;;;;;;;5.88;3.40;;;;;;;;;;10295195;28;20410;-92
2024/03/02 14:06:51;;;;;;;6.80;3.53;;;;;;;;;;10276467;28;20524;-93
2024/03/02 14:11:53;;;;;;;6.70;3.58;;;;;;;;;;10283270;28;20418;-92
2024/03/02 14:17:00;;;;;;;7.90;4.13;;;;;;;;;;10298137;28;20456;-92
2024/03/02 14:22:02;;;;;;;7.55;3.50;;;;;;;;;;10304262;28;20492;-93
2024/03/02 14:27:05;;;;;;;7.00;4.13;;;;;;;;;;10289810;28;20434;-92
2024/03/02 14:32:09;;;;;;;6.07;3.53;;;;;;;;;;10287274;28;20422;-90
2024/03/02 14:37:11;;;;;;;6.57;3.42;;;;;;;;;;10293028;28;20415;-89
2024/03/02 14:42:14;;;;;;;6.05;3.45;;;;;;;;;;10286709;28;20410;-89
2024/03/02 14:47:18;;;;;;;6.75;3.40;;;;;;;;;;10294681;28;20434;-87
2024/03/02 14:52:20;;;;;;;4.90;3.90;;;;;;;;;;10298805;28;20429;-89
2024/03/02 14:57:23;;;;;;;8.38;4.00;;;;;;;;;;10275750;28;20459;-89
2024/03/02 15:02:28;;;;;;;6.53;3.75;;;;;;;;;;10293326;28;20418;-89
2024/03/02 15:07:30;;;;;;;6.07;4.03;;;;;;;;;;10293195;28;20453;-88
2024/03/02 15:12:33;;;;;;;4.15;3.20;;;;;;;;;;10299150;28;20976;-89
2024/03/02 15:17:37;;;;;;;5.03;2.63;;;;;;;;;;10295319;28;20487;-88
2024/03/02 15:22:39;;;;;;;5.40;2.75;;;;;;;;;;10286109;28;20418;-89
2024/03/02 15:27:42;;;;;;;5.07;2.78;;;;;;;;;;10279244;28;20532;-89
2024/03/02 15:32:46;;;;;;;6.23;3.10;;;;;;;;;;10295793;28;20454;-89
2024/03/02 15:37:49;;;;;;;5.07;3.58;;;;;;;;;;10289378;28;20461;-81
2024/03/02 15:42:51;;;;;;;5.95;3.80;;;;;;;;;;10291234;28;20444;-81
2024/03/02 15:47:55;;;;;;;6.38;3.47;;;;;;;;;;10297420;28;20516;-89
2024/03/02 15:53:02;;;;;;;5.55;4.03;;;;;;;;;;10284963;28;20921;-88
2024/03/02 15:58:05;;;;;;;6.72;3.90;;;;;;;;;;10281856;28;20478;-88
2024/03/02 16:03:09;;;;;;;5.88;3.90;;;;;;;;;;10284999;28;20554;-89
2024/03/02 16:08:11;;;;;;;8.57;5.13;;;;;;;;;;10285165;28;20540;-88
2024/03/02 16:13:14;;;;;;;9.02;6.03;;;;;;;;;;10286208;28;20434;-89
2024/03/02 16:18:17;;;;;;;13.43;8.63;;;;;;;;;;10299621;28;20427;-88
2024/03/02 16:23:20;;;;;;;11.97;6.80;;;;;;;;;;10290504;28;20453;-89
2024/03/02 16:34:26;;;;;;;12.65;7.10;;;;;;;;;;10214142;28;20448;-88
2024/03/02 16:39:29;;;;;;;11.80;6.80;;;;;;;;;;10290855;28;20453;-85
2024/03/02 16:44:31;;;;;;;8.57;6.77;;;;;;;;;;10285220;28;20452;-84
2024/03/02 16:49:37;;;;;;;12.63;7.38;;;;;;;;;;10295926;28;20983;-89
2024/03/02 16:54:40;;;;;;;10.63;7.05;;;;;;;;;;10284628;28;20562;-89
2024/03/02 16:59:42;;;;;;;10.70;7.80;;;;;;;;;;10289533;28;20427;-88
2024/03/02 17:04:46;;;;;;;13.63;8.17;;;;;;;;;;10280159;28;20401;-89
2024/03/02 17:09:49;;;;;;;10.00;6.60;;;;;;;;;;10284334;28;20520;-88
2024/03/02 17:14:54;;;;;;;8.18;5.53;;;;;;;;;;10281942;28;21008;-87
2024/03/02 17:19:57;;;;;;;7.43;5.10;;;;;;;;;;10291266;28;20461;-88
2024/03/02 17:25:00;;;;;;;10.43;5.82;;;;;;;;;;10286679;28;20558;-92
2024/03/02 17:30:02;;;;;;;8.27;5.40;;;;;;;;;;10293299;28;20519;-92
2024/03/02 17:35:15;;;;;;;7.63;5.55;;;;;;;;;;10294158;28;20418;-92
2024/03/02 17:40:17;;;;;;;8.13;5.22;;;;;;;;;;10280118;28;20399;-91
2024/03/02 17:45:20;;;;;;;8.13;6.07;;;;;;;;;;10294677;28;20407;-91
2024/03/02 17:50:24;;;;;;;8.15;5.85;;;;;;;;;;10290405;28;20427;-91
2024/03/02 17:55:27;;;;;;;8.93;6.25;;;;;;;;;;10297792;28;20963;-91
2024/03/02 18:00:30;;;;;;;9.95;7.32;;;;;;;;;;10296573;28;20402;-92
2024/03/02 18:05:33;;;;;;;10.10;6.70;;;;;;;;;;10293373;28;20465;-90
2024/03/02 18:10:36;;;;;;;9.93;6.50;;;;;;;;;;10292307;28;20462;-92
2024/03/02 18:15:38;;;;;;;9.00;6.40;;;;;;;;;;10294865;28;20459;-91
2024/03/02 18:20:42;;;;;;;9.87;7.00;;;;;;;;;;10291455;28;20406;-91
2024/03/02 18:25:47;;;;;;;9.88;6.97;;;;;;;;;;10287997;28;20422;-85
2024/03/02 18:30:49;;;;;;;10.48;7.40;;;;;;;;;;10285411;28;20446;-89
2024/03/02 18:35:53;;;;;;;12.02;7.78;;;;;;;;;;10278995;28;20516;-86
2024/03/02 18:40:55;;;;;;;14.20;8.27;;;;;;;;;;10276762;28;20499;-90
2024/03/02 18:45:59;;;;;;;13.53;9.63;;;;;;;;;;10278241;28;20474;-92
2024/03/02 18:51:09;;;;;;;13.23;10.45;;;;;;;;;;10282430;28;20411;-90
2024/03/02 18:56:13;;;;;;;12.32;8.85;;;;;;;;;;10274257;28;20426;-90
2024/03/02 19:01:16;;;;;;;13.10;8.63;;;;;;;;;;10281467;28;20442;-92
2024/03/02 19:06:20;;;;;;;17.47;12.47;;;;;;;;;;10277886;28;20467;-92
2024/03/02 19:11:22;;;;;;;15.35;10.25;;;;;;;;;;10287682;28;20464;-87
2024/03/02 19:16:25;;;;;;;10.32;7.40;;;;;;;;;;10280386;28;20492;-87
2024/03/02 19:21:28;;;;;;;12.90;9.02;;;;;;;;;;10281987;28;20426;-88
2024/03/02 19:26:31;;;;;;;16.48;10.50;;;;;;;;;;10280099;28;20422;-88
2024/03/02 19:31:33;;;;;;;12.65;9.43;;;;;;;;;;10281941;28;20450;-89
2024/03/02 19:36:37;;;;;;;12.40;9.35;;;;;;;;;;10292303;28;20450;-89
2024/03/02 19:41:39;;;;;;;11.53;8.30;;;;;;;;;;10288744;28;20446;-88
2024/03/02 19:46:42;;;;;;;12.23;8.53;;;;;;;;;;10286739;28;20454;-89
2024/03/02 19:51:45;;;;;;;13.37;9.73;;;;;;;;;;10304122;28;20938;-88
2024/03/02 19:56:48;;;;;;;11.55;8.50;;;;;;;;;;10288552;28;20424;-89
2024/03/02 20:01:50;;;;;;;13.85;11.02;;;;;;;;;;10300273;28;20518;-88
2024/03/02 20:06:54;;;;;;;15.63;10.73;;;;;;;;;;10290080;28;20446;-88
2024/03/02 20:11:58;;;;;;;12.38;9.35;;;;;;;;;;10286528;28;20434;-86
2024/03/02 20:17:00;;;;;;;14.30;9.95;;;;;;;;;;10291584;28;20486;-89
2024/03/02 20:22:04;;;;;;;15.70;11.32;;;;;;;;;;10278401;28;20418;-88
2024/03/02 20:27:07;;;;;;;15.25;11.23;;;;;;;;;;10276510;28;20424;-89
2024/03/02 20:32:09;;;;;;;14.33;11.27;;;;;;;;;;10288195;28;20782;-88
2024/03/02 20:37:13;;;;;;;14.93;11.63;;;;;;;;;;10292713;28;20432;-88
2024/03/02 20:42:15;;;;;;;16.23;11.30;;;;;;;;;;10286326;28;20949;-88
2024/03/02 20:47:22;;;;;;;14.75;11.13;;;;;;;;;;10298791;28;20485;-88
2024/03/02 20:52:26;;;;;;;19.17;12.68;;;;;;;;;;10288613;28;20431;-86
2024/03/02 20:57:28;;;;;;;16.77;12.70;;;;;;;;;;10298330;28;20462;-87
2024/03/02 21:02:31;;;;;;;14.73;11.90;;;;;;;;;;10297272;28;20421;-81
2024/03/02 21:07:35;;;;;;;20.80;12.80;;;;;;;;;;10291720;28;20410;-90
2024/03/02 21:12:38;;;;;;;20.85;13.75;;;;;;;;;;10288796;28;20493;-90
2024/03/02 21:17:41;;;;;;;21.00;14.00;;;;;;;;;;10285929;28;20418;-89
2024/03/02 21:22:50;;;;;;;18.67;13.33;;;;;;;;;;10287131;28;20486;-89
2024/03/02 21:27:53;;;;;;;17.90;13.10;;;;;;;;;;10284938;28;20410;-87
2024/03/02 21:32:55;;;;;;;16.50;12.65;;;;;;;;;;10304965;28;20428;-92
2024/03/02 21:37:59;;;;;;;18.23;13.20;;;;;;;;;;10299746;28;20755;-93
2024/03/02 21:43:01;;;;;;;18.63;12.43;;;;;;;;;;10288793;28;20454;-91
2024/03/02 21:48:04;;;;;;;21.47;13.83;;;;;;;;;;10288015;28;20418;-92
2024/03/02 21:53:08;;;;;;;16.80;12.75;;;;;;;;;;10291708;28;20479;-92
2024/03/02 21:58:10;;;;;;;18.17;13.20;;;;;;;;;;10299497;28;20428;-93
2024/03/02 22:03:13;;;;;;;20.83;13.60;;;;;;;;;;10322532;28;20550;-92
2024/03/02 22:08:17;;;;;;;19.55;14.45;;;;;;;;;;10291200;28;20402;-91
2024/03/02 22:13:19;;;;;;;18.02;12.38;;;;;;;;;;10291200;28;20406;-92
2024/03/02 22:18:22;;;;;;;17.70;13.63;;;;;;;;;;10313638;28;20898;-93
2024/03/02 22:23:25;;;;;;;21.63;16.00;;;;;;;;;;10284851;28;20418;-91
2024/03/02 22:28:28;;;;;;;19.77;12.85;;;;;;;;;;10296128;28;20477;-91
2024/03/02 22:33:30;;;;;;;17.10;13.17;;;;;;;;;;10283518;28;20446;-91
2024/03/02 22:38:34;;;;;;;17.33;12.20;;;;;;;;;;10294999;28;20471;-92
2024/03/02 22:43:36;;;;;;;17.33;13.27;;;;;;;;;;10292201;28;20469;-91
2024/03/02 22:48:38;;;;;;;17.95;13.82;;;;;;;;;;10302316;28;20485;-91
2024/03/02 22:53:42;;;;;;;19.13;14.43;;;;;;;;;;10293208;28;20423;-91
2024/03/02 22:58:45;;;;;;;19.90;14.77;;;;;;;;;;10294912;28;20489;-92
2024/03/02 23:03:47;;;;;;;20.47;13.97;;;;;;;;;;10289743;28;20473;-91
2024/03/02 23:08:51;;;;;;;18.48;14.25;;;;;;;;;;10294243;28;20489;-91
2024/03/02 23:13:54;;;;;;;18.88;13.13;;;;;;;;;;10308361;28;21021;-91
2024/03/02 23:18:56;;;;;;;17.00;13.27;;;;;;;;;;10323588;28;20501;-90
2024/03/02 23:24:00;;;;;;;17.73;13.38;;;;;;;;;;10338386;28;20901;-90
2024/03/02 23:29:02;;;;;;;18.23;13.65;;;;;;;;;;10307069;28;20448;-91
2024/03/02 23:34:05;;;;;;;18.85;13.63;;;;;;;;;;10325103;28;20410;-92
2024/03/02 23:39:09;;;;;;;19.50;15.18;;;;;;;;;;10309415;28;20419;-89
2024/03/02 23:44:13;;;;;;;19.67;13.32;;;;;;;;;;10305041;28;20411;-91
2024/03/02 23:49:16;;;;;;;17.70;13.13;;;;;;;;;;10299961;28;20429;-90
2024/03/02 23:54:19;;;;;;;15.23;12.38;;;;;;;;;;10303985;28;20414;-90
2024/03/02 23:59:22;;;;;;;19.05;12.68;;;;;;;;;;10303061;28;20485;-91
